KJGG

Williamsburg-Jamestown Airport

Williamsburg, Virginia, USA
METAR KJGG 181435Z AUTO 25010G14KT 10SM CLR 29/22 A2997 RMK AO1
Observed Flight Rules
Aug-18 @ 14:35 UTC (18 minutes ago) Visual Flight Rules
Wind Visibility Clouds
250° at 10 knots
 Gusting to 14 knots
10 miles
  • Clear skies
Temperatures Readings
Current 29°C / 84°F
Dewpoint 22°C / 72°F
Humidity 66%
Altimeter 29.97" Hg
Pressure 1015 hPa
Elevation 15
METAR KJGG 181435Z AUTO 25010G14KT 10SM CLR 29/22 A2997 RMK AO1
Observed Flight Rules
Aug-18 @ 14:35 UTC
(18 minutes ago)
VFR
Wind Visibility
250° at 10 knots
 Gusting to 14 knots
10 miles
Clouds
  • Clear skies
Temperature Dewpoint
29°C / 84°F 22°C / 72°F
Humidity Altimeter Pressure
66% 29.97" Hg 1015 hPa